createdAt,value
2018-06-27T00:01:31.156Z,11.73
2018-06-27T00:04:00.176Z,17.57
2018-06-27T00:06:29.142Z,16.13
2018-06-27T00:08:58.097Z,15.60
2018-06-27T00:11:27.155Z,15.83
2018-06-27T00:13:56.172Z,14.60
2018-06-27T00:16:25.755Z,16.43
2018-06-27T00:18:54.739Z,17.17
2018-06-27T00:21:23.781Z,18.13
2018-06-27T00:23:52.818Z,15.73
2018-06-27T00:26:21.789Z,17.67
2018-06-27T00:28:50.817Z,19.00
2018-06-27T00:31:19.861Z,14.10
2018-06-27T00:33:48.859Z,17.60
2018-06-27T00:36:17.841Z,15.53
2018-06-27T00:38:46.574Z,17.40
2018-06-27T00:41:15.495Z,16.73
2018-06-27T00:43:44.473Z,17.97
2018-06-27T00:46:13.544Z,20.70
2018-06-27T00:48:42.537Z,16.73
2018-06-27T00:51:11.572Z,17.57
2018-06-27T00:53:45.909Z,15.00
2018-06-27T00:56:14.911Z,19.70
2018-06-27T00:58:43.899Z,16.53
2018-06-27T01:01:13.157Z,17.70
2018-06-27T01:03:42.213Z,16.57
2018-06-27T01:06:11.301Z,16.10
2018-06-27T01:08:40.320Z,17.03
2018-06-27T01:11:09.429Z,19.47
2018-06-27T01:13:38.431Z,16.40
2018-06-27T01:16:07.564Z,18.87
2018-06-27T01:18:36.599Z,14.77
2018-06-27T01:21:05.605Z,16.17
2018-06-27T01:23:34.680Z,18.13
2018-06-27T01:26:03.785Z,17.60
2018-06-27T01:28:32.776Z,20.47
2018-06-27T01:31:01.800Z,19.60
2018-06-27T01:33:31.888Z,17.47
2018-06-27T01:36:00.888Z,18.53
2018-06-27T01:38:29.878Z,20.30
2018-06-27T01:40:58.858Z,16.53
2018-06-27T01:43:27.854Z,17.13
2018-06-27T01:45:56.896Z,22.27
2018-06-27T01:48:25.877Z,23.03
2018-06-27T01:50:54.872Z,15.77
2018-06-27T01:53:23.916Z,21.90
2018-06-27T01:55:52.902Z,19.27
2018-06-27T01:58:21.904Z,18.23
2018-06-27T02:00:50.904Z,18.60
2018-06-27T02:03:19.966Z,19.53
2018-06-27T02:05:48.942Z,19.07
2018-06-27T02:08:17.922Z,19.53
2018-06-27T02:10:46.932Z,17.73
2018-06-27T02:13:15.970Z,19.30
2018-06-27T02:15:44.962Z,19.97
2018-06-27T02:18:14.048Z,23.50
2018-06-27T02:20:43.058Z,20.07
2018-06-27T02:23:12.894Z,21.13
2018-06-27T02:25:42.141Z,19.70
2018-06-27T02:28:11.752Z,19.77
2018-06-27T02:30:40.906Z,23.83
2018-06-27T02:33:10.591Z,18.77
2018-06-27T02:35:39.586Z,19.30
2018-06-27T02:38:08.600Z,16.80
2018-06-27T02:40:37.662Z,19.43
2018-06-27T02:43:06.764Z,21.97
2018-06-27T02:45:35.866Z,22.50
2018-06-27T02:48:04.839Z,23.00
2018-06-27T02:50:33.948Z,18.87
2018-06-27T02:53:02.946Z,21.73
2018-06-27T02:55:32.040Z,24.93
2018-06-27T02:58:01.016Z,24.23
2018-06-27T03:00:30.055Z,24.80
2018-06-27T03:02:59.233Z,21.70
2018-06-27T03:05:28.321Z,22.93
2018-06-27T03:07:57.314Z,21.40
2018-06-27T03:10:26.317Z,20.07
2018-06-27T03:12:55.318Z,24.33
2018-06-27T03:15:24.302Z,20.73
2018-06-27T03:17:53.260Z,19.87
2018-06-27T03:20:22.247Z,23.73
2018-06-27T03:22:51.269Z,22.37
2018-06-27T03:25:20.290Z,22.43
2018-06-27T03:27:49.274Z,21.47
2018-06-27T03:30:18.358Z,27.67
2018-06-27T03:32:47.402Z,24.83
2018-06-27T03:35:16.381Z,21.23
2018-06-27T03:37:45.437Z,21.40
2018-06-27T03:40:14.433Z,23.47
2018-06-27T03:42:43.453Z,22.60
2018-06-27T03:45:12.502Z,26.87
2018-06-27T03:47:41.497Z,25.47
2018-06-27T03:50:10.490Z,23.20
2018-06-27T03:52:44.588Z,25.37
2018-06-27T03:55:13.805Z,25.87
2018-06-27T03:57:42.849Z,23.27
2018-06-27T04:00:11.942Z,22.47
2018-06-27T04:02:41.342Z,23.23
2018-06-27T04:05:10.348Z,24.57
2018-06-27T04:07:39.323Z,23.60
2018-06-27T04:10:09.614Z,26.20
2018-06-27T04:12:38.677Z,27.17
2018-06-27T04:15:08.238Z,22.00
2018-06-27T04:17:37.245Z,23.30
2018-06-27T04:20:06.316Z,23.03
2018-06-27T04:22:36.061Z,22.73
2018-06-27T04:25:05.258Z,20.83
2018-06-27T04:27:34.282Z,26.93
2018-06-27T04:30:03.889Z,26.17
2018-06-27T04:32:32.885Z,25.33
2018-06-27T04:35:01.938Z,28.20
2018-06-27T04:37:31.266Z,26.57
2018-06-27T04:39:59.982Z,24.90
2018-06-27T04:42:28.985Z,26.03
2018-06-27T04:44:58.061Z,28.57
2018-06-27T04:47:27.013Z,30.07
2018-06-27T04:49:56.001Z,25.30
2018-06-27T04:52:25.017Z,25.73
2018-06-27T04:54:54.072Z,31.03
2018-06-27T04:57:23.093Z,29.70
2018-06-27T04:59:52.110Z,27.93
2018-06-27T05:02:21.129Z,28.30
2018-06-27T05:04:50.253Z,26.33
2018-06-27T05:07:19.236Z,27.67
2018-06-27T05:09:48.244Z,27.97
2018-06-27T05:12:17.247Z,25.17
2018-06-27T05:14:46.400Z,25.47
2018-06-27T05:17:15.417Z,25.13
2018-06-27T05:19:44.658Z,26.03
2018-06-27T05:22:14.442Z,27.83
2018-06-27T05:24:44.015Z,27.30
2018-06-27T05:27:12.997Z,29.00
2018-06-27T05:29:42.064Z,27.33
2018-06-27T05:32:11.031Z,26.27
2018-06-27T05:34:40.073Z,26.87
2018-06-27T05:37:09.016Z,29.80
2018-06-27T05:39:37.998Z,30.33
2018-06-27T05:42:07.028Z,28.97
2018-06-27T05:44:36.397Z,29.20
2018-06-27T05:47:05.428Z,29.50
2018-06-27T05:49:34.416Z,30.93
2018-06-27T05:52:03.394Z,32.90
2018-06-27T05:54:32.424Z,33.70
2018-06-27T05:57:01.466Z,30.60
2018-06-27T05:59:30.436Z,31.87
2018-06-27T06:01:59.424Z,34.10
2018-06-27T06:04:28.720Z,28.23
2018-06-27T06:06:57.540Z,29.83
2018-06-27T06:09:26.534Z,31.90
2018-06-27T06:11:55.588Z,32.93
2018-06-27T06:14:24.624Z,34.97
2018-06-27T06:16:53.644Z,32.70
2018-06-27T06:19:22.635Z,29.33
2018-06-27T06:21:51.676Z,31.13
2018-06-27T06:24:20.680Z,32.50
2018-06-27T06:26:49.869Z,30.53
2018-06-27T06:29:18.862Z,30.13
2018-06-27T06:31:47.873Z,34.37
2018-06-27T06:34:16.888Z,35.83
2018-06-27T06:36:45.875Z,33.20
2018-06-27T06:39:14.886Z,31.47
2018-06-27T06:41:43.882Z,29.13
2018-06-27T06:44:13.006Z,31.87
2018-06-27T06:46:42.076Z,35.47
2018-06-27T06:49:11.174Z,30.00
2018-06-27T06:51:40.202Z,30.63
2018-06-27T06:54:09.224Z,30.97
2018-06-27T06:56:38.257Z,36.33
2018-06-27T06:59:07.004Z,31.33
2018-06-27T07:01:35.928Z,28.87
2018-06-27T07:04:05.098Z,30.90
2018-06-27T07:06:34.127Z,31.73
2018-06-27T07:09:03.354Z,32.57
2018-06-27T07:11:32.358Z,33.03
2018-06-27T07:14:01.366Z,28.20
2018-06-27T07:16:30.402Z,31.63
2018-06-27T07:18:59.381Z,31.57
2018-06-27T07:21:29.660Z,27.87
2018-06-27T07:23:58.672Z,32.93
2018-06-27T07:26:27.854Z,31.00
2018-06-27T07:28:56.914Z,29.40
2018-06-27T07:31:25.712Z,30.47
2018-06-27T07:33:55.073Z,32.10
2018-06-27T07:36:24.140Z,33.27
2018-06-27T07:38:53.177Z,29.33
2018-06-27T07:41:22.220Z,28.27
2018-06-27T07:43:51.222Z,32.20
2018-06-27T07:46:20.305Z,28.17
2018-06-27T07:48:49.316Z,29.20
2018-06-27T07:51:19.172Z,30.13
2018-06-27T07:53:48.222Z,27.90
2018-06-27T07:56:17.262Z,28.40
2018-06-27T07:58:46.238Z,27.17
2018-06-27T08:01:15.217Z,30.77
2018-06-27T08:03:44.229Z,26.40
2018-06-27T08:06:13.313Z,24.30
2018-06-27T08:08:42.366Z,27.00
2018-06-27T08:11:11.389Z,24.30
2018-06-27T08:13:40.463Z,24.67
2018-06-27T08:16:09.588Z,23.33
2018-06-27T08:18:42.611Z,22.60
2018-06-27T08:21:11.758Z,27.50
2018-06-27T08:23:40.961Z,26.13
2018-06-27T08:26:10.103Z,23.53
2018-06-27T08:28:39.127Z,23.00
2018-06-27T08:31:08.533Z,23.83
2018-06-27T08:33:37.933Z,26.30
2018-06-27T08:36:07.363Z,23.23
2018-06-27T08:38:36.739Z,25.73
2018-06-27T08:41:06.181Z,22.17
2018-06-27T08:43:35.466Z,24.47
2018-06-27T08:46:04.911Z,22.27
2018-06-27T08:48:34.097Z,27.47
2018-06-27T08:51:03.241Z,26.13
2018-06-27T08:53:32.542Z,22.90
2018-06-27T08:56:02.419Z,25.90
2018-06-27T08:58:31.755Z,23.87
2018-06-27T09:01:00.851Z,22.40
2018-06-27T09:03:30.049Z,21.40
2018-06-27T09:05:59.277Z,25.90
2018-06-27T09:08:28.549Z,22.13
2018-06-27T09:10:57.573Z,23.20
2018-06-27T09:13:26.622Z,23.13
2018-06-27T09:15:55.617Z,20.83
2018-06-27T09:18:24.641Z,22.97
2018-06-27T09:20:53.801Z,22.53
2018-06-27T09:23:22.834Z,19.83
2018-06-27T09:25:51.899Z,24.47
2018-06-27T09:28:20.919Z,21.87
2018-06-27T09:30:49.901Z,23.53
2018-06-27T09:33:18.879Z,23.40
2018-06-27T09:35:47.898Z,24.40
2018-06-27T09:38:16.979Z,22.50
2018-06-27T09:40:46.075Z,24.33
2018-06-27T09:43:15.149Z,24.50
2018-06-27T09:45:44.209Z,22.83
2018-06-27T09:48:13.463Z,22.30
2018-06-27T09:50:42.506Z,21.30
2018-06-27T09:53:11.484Z,21.40
2018-06-27T09:55:40.600Z,23.87
2018-06-27T09:58:09.330Z,21.43
2018-06-27T10:00:38.199Z,19.77
2018-06-27T10:03:08.189Z,21.27
2018-06-27T10:05:37.746Z,21.87
2018-06-27T10:08:07.253Z,21.67
2018-06-27T10:10:36.270Z,17.77
2018-06-27T10:13:05.352Z,17.17
2018-06-27T10:15:34.326Z,17.70
2018-06-27T10:18:03.324Z,20.23
2018-06-27T10:20:32.281Z,20.93
2018-06-27T10:23:01.254Z,18.93
2018-06-27T10:25:30.246Z,21.13
2018-06-27T10:27:59.235Z,20.30
2018-06-27T10:30:28.248Z,23.90
2018-06-27T10:32:57.570Z,20.50
2018-06-27T10:35:26.650Z,23.27
2018-06-27T10:37:55.690Z,16.10
2018-06-27T10:40:24.698Z,17.27
2018-06-27T10:42:53.770Z,15.10
2018-06-27T10:45:22.762Z,14.83
2018-06-27T10:47:51.872Z,14.83
2018-06-27T10:50:20.835Z,16.53
2018-06-27T10:52:49.542Z,14.43
2018-06-27T10:55:20.477Z,13.97
2018-06-27T10:57:49.616Z,13.80
2018-06-27T11:00:18.602Z,18.10
2018-06-27T11:02:47.664Z,13.00
2018-06-27T11:05:16.653Z,17.67
2018-06-27T11:07:45.710Z,25.43
2018-06-27T11:10:14.717Z,16.70
2018-06-27T11:12:43.686Z,16.17
2018-06-27T11:15:12.686Z,13.50
2018-06-27T11:17:41.799Z,14.50
2018-06-27T11:20:10.921Z,14.90
2018-06-27T11:22:39.998Z,14.67
2018-06-27T11:25:09.030Z,13.50
2018-06-27T11:27:38.046Z,17.10
2018-06-27T11:30:07.022Z,20.60
2018-06-27T11:32:35.989Z,17.00
2018-06-27T11:35:05.014Z,15.80
2018-06-27T11:37:34.864Z,15.47
2018-06-27T11:40:03.925Z,15.00
2018-06-27T11:42:32.906Z,11.93
2018-06-27T11:45:01.945Z,12.57
2018-06-27T11:47:30.934Z,15.47
2018-06-27T11:49:59.963Z,13.43
2018-06-27T11:52:28.959Z,12.00
2018-06-27T11:55:03.573Z,12.07
2018-06-27T11:57:32.662Z,16.93
2018-06-27T12:00:01.630Z,12.37
2018-06-27T12:02:30.623Z,16.37
2018-06-27T12:04:59.614Z,19.40
2018-06-27T12:07:28.653Z,18.33
2018-06-27T12:09:57.672Z,16.77
2018-06-27T12:12:26.677Z,13.47
2018-06-27T12:14:55.822Z,12.43
2018-06-27T12:17:24.936Z,12.07
2018-06-27T12:19:53.917Z,12.47
2018-06-27T12:22:23.031Z,12.10
2018-06-27T12:24:52.034Z,14.07
2018-06-27T12:27:21.111Z,11.00
2018-06-27T12:29:50.093Z,9.87
2018-06-27T12:32:19.117Z,10.97
2018-06-27T12:34:48.082Z,15.10
2018-06-27T12:37:17.123Z,10.43
2018-06-27T12:39:46.121Z,11.33
2018-06-27T12:42:15.100Z,11.53
2018-06-27T12:44:44.064Z,9.70
2018-06-27T12:47:13.077Z,13.60
2018-06-27T12:49:42.154Z,11.10
2018-06-27T12:52:11.174Z,10.47
2018-06-27T12:54:40.125Z,11.67
2018-06-27T12:57:09.237Z,12.27
2018-06-27T12:59:38.344Z,12.03
2018-06-27T13:02:07.718Z,11.43
2018-06-27T13:04:36.812Z,11.97
2018-06-27T13:07:05.776Z,14.07
2018-06-27T13:09:34.781Z,12.93
2018-06-27T13:12:03.776Z,12.00
2018-06-27T13:14:32.746Z,14.27
2018-06-27T13:17:01.787Z,12.13
2018-06-27T13:19:30.890Z,10.23
2018-06-27T13:22:00.029Z,8.50
2018-06-27T13:24:29.019Z,10.37
2018-06-27T13:26:58.040Z,11.10
2018-06-27T13:29:26.864Z,12.37
2018-06-27T13:31:55.800Z,13.63
2018-06-27T13:34:24.814Z,12.30
2018-06-27T13:36:53.841Z,10.70
2018-06-27T13:39:22.868Z,9.57
2018-06-27T13:41:51.934Z,9.03
2018-06-27T13:44:20.886Z,9.97
2018-06-27T13:46:49.857Z,11.90
2018-06-27T13:49:18.913Z,12.73
2018-06-27T13:51:47.906Z,10.67
2018-06-27T13:54:16.890Z,12.00
2018-06-27T13:56:45.908Z,10.60
2018-06-27T13:59:14.985Z,10.63
2018-06-27T14:01:43.954Z,7.63
2018-06-27T14:04:13.531Z,7.67
2018-06-27T14:06:42.548Z,11.07
2018-06-27T14:09:11.580Z,7.67
2018-06-27T14:11:40.558Z,10.53
2018-06-27T14:14:09.530Z,9.87
2018-06-27T14:16:38.520Z,9.30
2018-06-27T14:19:07.510Z,8.50
2018-06-27T14:21:36.628Z,8.90
2018-06-27T14:24:05.825Z,9.87
2018-06-27T14:26:34.762Z,16.53
2018-06-27T14:29:03.806Z,10.33
2018-06-27T14:31:32.970Z,10.93
2018-06-27T14:34:02.228Z,10.67
2018-06-27T14:36:31.189Z,15.67
2018-06-27T14:39:00.237Z,10.70
2018-06-27T14:41:29.230Z,15.30
2018-06-27T14:43:58.274Z,12.47
2018-06-27T14:46:27.257Z,10.50
2018-06-27T14:48:56.282Z,10.57
2018-06-27T14:51:25.337Z,13.17
2018-06-27T14:53:54.367Z,10.87
2018-06-27T14:56:23.659Z,9.03
2018-06-27T14:58:52.659Z,8.07
2018-06-27T15:01:21.717Z,10.93
2018-06-27T15:03:50.697Z,8.83
2018-06-27T15:06:19.758Z,18.10
2018-06-27T15:08:49.057Z,12.20
2018-06-27T15:11:18.102Z,10.30
2018-06-27T15:13:47.220Z,11.67
2018-06-27T15:16:16.240Z,15.83
2018-06-27T15:18:45.314Z,12.03
2018-06-27T15:21:14.316Z,11.40
2018-06-27T15:23:43.396Z,8.60
2018-06-27T15:26:12.341Z,7.70
2018-06-27T15:28:41.373Z,8.10
2018-06-27T15:31:10.454Z,9.90
2018-06-27T15:33:39.524Z,19.37
2018-06-27T15:36:08.493Z,9.90
2018-06-27T15:38:37.549Z,7.97
2018-06-27T15:41:08.319Z,8.27
2018-06-27T15:43:37.326Z,8.57
2018-06-27T15:46:06.377Z,6.73
2018-06-27T15:48:35.510Z,11.33
2018-06-27T15:51:04.561Z,10.37
2018-06-27T15:53:33.698Z,10.47
2018-06-27T15:56:02.807Z,8.70
2018-06-27T15:58:31.841Z,8.17
2018-06-27T16:01:00.914Z,8.93
2018-06-27T16:03:29.979Z,6.03
2018-06-27T16:05:58.964Z,9.53
2018-06-27T16:08:27.971Z,14.27
2018-06-27T16:10:57.037Z,12.03
2018-06-27T16:13:26.009Z,10.30
2018-06-27T16:15:55.029Z,6.73
2018-06-27T16:18:24.076Z,6.27
2018-06-27T16:20:53.169Z,7.73
2018-06-27T16:23:22.165Z,6.80
2018-06-27T16:25:51.328Z,8.13
2018-06-27T16:28:20.422Z,6.10
2018-06-27T16:30:49.495Z,9.30
2018-06-27T16:33:18.516Z,4.77
2018-06-27T16:35:47.559Z,5.77
2018-06-27T16:38:16.563Z,5.73
2018-06-27T16:40:45.597Z,5.67
2018-06-27T16:43:14.663Z,6.47
2018-06-27T16:45:43.786Z,7.50
2018-06-27T16:48:12.806Z,9.77
2018-06-27T16:50:41.966Z,7.63
2018-06-27T16:53:10.905Z,10.17
2018-06-27T16:55:39.876Z,5.87
2018-06-27T16:58:08.894Z,5.67
2018-06-27T17:00:38.569Z,8.40
2018-06-27T17:03:07.544Z,9.10
2018-06-27T17:05:36.555Z,10.40
2018-06-27T17:08:05.852Z,7.20
2018-06-27T17:10:34.906Z,5.17
2018-06-27T17:13:03.972Z,7.30
2018-06-27T17:15:32.956Z,6.47
2018-06-27T17:18:01.964Z,7.40
2018-06-27T17:20:31.008Z,5.93
2018-06-27T17:23:00.038Z,9.40
2018-06-27T17:25:29.026Z,6.73
2018-06-27T17:27:58.061Z,6.90
2018-06-27T17:30:27.076Z,9.00
2018-06-27T17:32:56.080Z,12.80
2018-06-27T17:35:25.125Z,8.23
2018-06-27T17:37:54.095Z,8.60
2018-06-27T17:40:23.106Z,5.33
2018-06-27T17:42:52.134Z,10.20
2018-06-27T17:45:21.106Z,6.40
2018-06-27T17:47:50.104Z,7.40
2018-06-27T17:50:19.150Z,5.57
2018-06-27T17:52:48.144Z,7.03
2018-06-27T17:55:17.238Z,7.47
2018-06-27T17:57:46.206Z,8.80
2018-06-27T18:00:15.310Z,7.37
2018-06-27T18:02:44.358Z,6.33
2018-06-27T18:05:13.362Z,8.80
2018-06-27T18:07:42.376Z,6.00
2018-06-27T18:10:11.424Z,6.60
2018-06-27T18:12:40.536Z,8.60
2018-06-27T18:15:09.547Z,8.87
2018-06-27T18:17:38.613Z,10.07
2018-06-27T18:20:07.606Z,9.27
2018-06-27T18:22:36.598Z,8.43
2018-06-27T18:25:05.950Z,6.57
2018-06-27T18:27:35.072Z,5.80
2018-06-27T18:30:04.374Z,9.17
2018-06-27T18:32:33.462Z,6.20
2018-06-27T18:35:02.481Z,5.80
2018-06-27T18:37:31.542Z,6.23
2018-06-27T18:40:00.554Z,7.07
2018-06-27T18:42:29.604Z,7.73
2018-06-27T18:44:59.066Z,7.43
2018-06-27T18:47:28.126Z,6.20
2018-06-27T18:49:57.127Z,8.57
2018-06-27T18:52:26.431Z,7.03
2018-06-27T18:54:55.461Z,5.97
2018-06-27T18:57:25.289Z,5.67
2018-06-27T18:59:54.433Z,8.53
2018-06-27T19:02:23.512Z,9.50
2018-06-27T19:04:52.569Z,5.37
2018-06-27T19:07:21.629Z,6.07
2018-06-27T19:09:51.645Z,4.37
2018-06-27T19:12:20.669Z,6.17
2018-06-27T19:14:49.669Z,5.67
2018-06-27T19:17:18.719Z,5.17
2018-06-27T19:19:47.686Z,4.93
2018-06-27T19:22:16.893Z,9.03
2018-06-27T19:24:45.621Z,3.80
2018-06-27T19:27:14.561Z,4.80
2018-06-27T19:29:43.567Z,4.87
2018-06-27T19:32:13.891Z,3.83
2018-06-27T19:34:43.013Z,4.63
2018-06-27T19:37:11.965Z,5.50
2018-06-27T19:39:40.937Z,2.83
2018-06-27T19:42:10.057Z,5.17
2018-06-27T19:44:39.103Z,6.53
2018-06-27T19:47:08.285Z,5.47
2018-06-27T19:49:37.318Z,5.10
2018-06-27T19:52:06.305Z,5.10
2018-06-27T19:54:35.393Z,7.80
2018-06-27T19:57:04.399Z,4.13
2018-06-27T19:59:33.450Z,4.33
2018-06-27T20:02:02.494Z,3.73
2018-06-27T20:04:31.470Z,4.33
2018-06-27T20:07:00.462Z,3.80
2018-06-27T20:09:29.567Z,4.67
2018-06-27T20:11:58.559Z,3.90
2018-06-27T20:14:27.669Z,6.90
2018-06-27T20:16:56.583Z,5.60
2018-06-27T20:19:25.586Z,4.33
2018-06-27T20:21:54.676Z,8.67
2018-06-27T20:24:23.660Z,4.90
2018-06-27T20:26:52.668Z,6.03
2018-06-27T20:29:21.722Z,3.57
2018-06-27T20:31:50.698Z,6.90
2018-06-27T20:34:19.698Z,6.40
2018-06-27T20:36:48.717Z,6.17
2018-06-27T20:39:17.696Z,4.57
2018-06-27T20:41:46.698Z,4.43
2018-06-27T20:44:15.715Z,4.47
2018-06-27T20:46:44.743Z,5.60
2018-06-27T20:49:13.726Z,4.53
2018-06-27T20:51:42.725Z,6.53
2018-06-27T20:54:11.820Z,6.67
2018-06-27T20:56:40.794Z,4.57
2018-06-27T20:59:09.808Z,5.97
2018-06-27T21:01:38.806Z,6.87
2018-06-27T21:04:07.895Z,3.50
2018-06-27T21:06:36.863Z,6.17
2018-06-27T21:09:07.974Z,6.63
2018-06-27T21:11:37.017Z,5.50
2018-06-27T21:14:06.207Z,7.90
2018-06-27T21:16:35.172Z,5.73
2018-06-27T21:19:04.162Z,6.97
2018-06-27T21:21:33.172Z,8.73
2018-06-27T21:24:02.198Z,4.57
2018-06-27T21:26:31.185Z,5.63
2018-06-27T21:29:00.288Z,3.23
2018-06-27T21:31:29.577Z,4.93
2018-06-27T21:33:58.621Z,3.63
2018-06-27T21:36:27.589Z,2.87
2018-06-27T21:38:56.671Z,4.57
2018-06-27T21:41:25.687Z,4.53
2018-06-27T21:43:54.795Z,5.40
2018-06-27T21:46:23.751Z,6.37
2018-06-27T21:48:52.729Z,6.33
2018-06-27T21:51:21.743Z,4.43
2018-06-27T21:53:50.835Z,3.10
2018-06-27T21:56:19.829Z,3.47
2018-06-27T21:58:48.820Z,5.37
2018-06-27T22:01:17.837Z,3.20
2018-06-27T22:03:46.893Z,4.60
2018-06-27T22:06:15.902Z,7.03
2018-06-27T22:08:44.874Z,5.00
2018-06-27T22:11:13.889Z,6.17
2018-06-27T22:13:42.913Z,3.77
2018-06-27T22:16:11.901Z,6.50
2018-06-27T22:18:40.910Z,6.27
2018-06-27T22:21:09.895Z,4.33
2018-06-27T22:23:38.890Z,6.47
2018-06-27T22:26:07.869Z,5.23
2018-06-27T22:28:36.865Z,4.60
2018-06-27T22:31:06.096Z,4.50
2018-06-27T22:33:35.344Z,5.37
2018-06-27T22:36:04.537Z,6.27
2018-06-27T22:38:33.717Z,5.90
2018-06-27T22:41:02.891Z,5.90
2018-06-27T22:43:31.594Z,4.87
2018-06-27T22:46:00.564Z,7.83
2018-06-27T22:48:29.437Z,5.07
2018-06-27T22:50:58.410Z,6.43
2018-06-27T22:53:27.904Z,5.40
2018-06-27T22:55:57.000Z,4.60
2018-06-27T22:58:25.946Z,4.63
2018-06-27T23:00:55.296Z,4.10
2018-06-27T23:03:24.456Z,4.93
2018-06-27T23:05:53.454Z,5.63
2018-06-27T23:08:22.474Z,5.30
2018-06-27T23:10:51.640Z,6.97
2018-06-27T23:13:20.634Z,4.63
2018-06-27T23:15:49.746Z,7.03
2018-06-27T23:18:18.724Z,6.30
2018-06-27T23:20:47.751Z,7.40
2018-06-27T23:23:16.798Z,7.17
2018-06-27T23:25:45.793Z,6.60
2018-06-27T23:28:14.830Z,5.20
2018-06-27T23:30:43.786Z,6.23
2018-06-27T23:33:12.760Z,4.97
2018-06-27T23:35:41.772Z,5.70
2018-06-27T23:38:10.769Z,6.63
2018-06-27T23:40:39.760Z,7.17
2018-06-27T23:43:08.722Z,4.20
2018-06-27T23:45:37.752Z,7.40
2018-06-27T23:48:06.782Z,7.63
2018-06-27T23:50:35.759Z,5.27
2018-06-27T23:53:04.766Z,8.27
2018-06-27T23:55:33.760Z,7.27
2018-06-27T23:58:02.737Z,7.60
